This is the latest recevied weather packets stored in our database for station/object N0SWP-3. If no packets are shown the sender has not sent any weather packets the latest 10 day(s).
| Time | Temp. | Humidity | Pressure | Rain* | Wind** | Luminosity | Snow |
|---|---|---|---|---|---|---|---|
| 1777817883 | 17.22° C | 53% | 1015.5 hPa | 0 mm | - | - | - |
| 1777816803 | 16.11° C | 55% | 1015.6 hPa | 0 mm | - | - | - |
| 1777816623 | 16.11° C | 56% | 1015.5 hPa | 0 mm | - | - | - |
| 1777815364 | 15° C | 57% | 1015.3 hPa | 0 mm | - | - | - |
| 1777813923 | 12.78° C | 61% | 1015.5 hPa | 0 mm | - | - | - |
| 1777812663 | 11.11° C | 66% | 1015.9 hPa | 0 mm | - | - | - |
| 1777812257 | 10.56° C | 66% | 1015.9 hPa | 0 mm | - | - | - |
| 1777810637 | 8.89° C | 69% | 1015.9 hPa | 0 mm | - | - | - |
| 1777809603 | 8.33° C | 69% | 1016.1 hPa | 0 mm | - | - | - |
| 1777808883 | 7.78° C | 69% | 1016.1 hPa | 0 mm | - | - | - |
| 1777807623 | 7.22° C | 70% | 1016.1 hPa | 0 mm | - | - | - |
| 1777806723 | 7.78° C | 68% | 1016 hPa | 0 mm | - | - | - |
| 1777806543 | 7.78° C | 68% | 1016 hPa | 0 mm | - | - | - |
| 1777806183 | 7.78° C | 67% | 1016.1 hPa | 0 mm | - | - | - |
| 1777805464 | 7.78° C | 67% | 1016 hPa | 0 mm | - | - | - |
| 1777804924 | 7.78° C | 67% | 1016.1 hPa | 0 mm | - | - | - |
| 1777804518 | 8.33° C | 66% | 1016.3 hPa | 0 mm | - | - | - |
| 1777802943 | 8.89° C | 62% | 1016.6 hPa | 0 mm | - | - | - |
| 1777802763 | 8.89° C | 62% | 1016.6 hPa | 0 mm | - | - | - |
| 1777802583 | 9.44° C | 61% | 1016.6 hPa | 0 mm | - | - | - |
| 1777802403 | 9.44° C | 61% | 1016.6 hPa | 0 mm | - | - | - |
| 1777802043 | 9.44° C | 60% | 1016.6 hPa | 0 mm | - | - | - |
| 1777801324 | 9.44° C | 60% | 1016.8 hPa | 0 mm | - | - | - |
| 1777800423 | 10° C | 59% | 1016.8 hPa | 0 mm | - | - | - |
| 1777797903 | 10° C | 59% | 1017 hPa | 0 mm | - | - | - |
* Rain latest hour (hover to see other rain measurements)
** Current wind speed in m/s (hover to see current wind gust speed)